sensor_id;sensor_type;location;lat;lon;timestamp;pressure;altitude;pressure_sealevel;temperature;humidity
53246;BME280;39569;51.090;-1.786;2023-02-17T00:01:59;101481.91;;;17.51;62.09
53246;BME280;39569;51.090;-1.786;2023-02-17T00:04:28;101475.34;;;17.80;60.85
53246;BME280;39569;51.090;-1.786;2023-02-17T00:06:55;101478.97;;;18.13;60.28
53246;BME280;39569;51.090;-1.786;2023-02-17T00:09:22;101476.56;;;18.50;58.87
53246;BME280;39569;51.090;-1.786;2023-02-17T00:11:49;101482.56;;;18.46;59.29
53246;BME280;39569;51.090;-1.786;2023-02-17T00:14:17;101476.13;;;18.53;58.98
53246;BME280;39569;51.090;-1.786;2023-02-17T00:16:44;101471.34;;;18.55;58.89
53246;BME280;39569;51.090;-1.786;2023-02-17T00:19:11;101470.09;;;18.51;58.82
53246;BME280;39569;51.090;-1.786;2023-02-17T00:21:52;101475.72;;;17.70;61.18
53246;BME280;39569;51.090;-1.786;2023-02-17T00:24:20;101472.88;;;17.85;61.48
53246;BME280;39569;51.090;-1.786;2023-02-17T00:26:46;101471.84;;;17.86;61.33
53246;BME280;39569;51.090;-1.786;2023-02-17T00:29:14;101462.56;;;18.34;60.22
53246;BME280;39569;51.090;-1.786;2023-02-17T00:31:41;101470.00;;;17.45;62.61
53246;BME280;39569;51.090;-1.786;2023-02-17T00:34:07;101465.25;;;18.01;61.46
53246;BME280;39569;51.090;-1.786;2023-02-17T00:36:34;101472.78;;;17.24;63.52
53246;BME280;39569;51.090;-1.786;2023-02-17T00:39:03;101471.31;;;17.56;62.51
53246;BME280;39569;51.090;-1.786;2023-02-17T00:41:31;101475.66;;;17.50;62.66
53246;BME280;39569;51.090;-1.786;2023-02-17T00:43:58;101462.47;;;17.34;62.71
53246;BME280;39569;51.090;-1.786;2023-02-17T00:46:25;101467.88;;;17.34;63.47
53246;BME280;39569;51.090;-1.786;2023-02-17T00:48:52;101463.13;;;17.43;62.52
53246;BME280;39569;51.090;-1.786;2023-02-17T00:51:19;101466.88;;;17.42;63.36
53246;BME280;39569;51.090;-1.786;2023-02-17T00:53:46;101453.53;;;17.75;61.97
53246;BME280;39569;51.090;-1.786;2023-02-17T00:56:14;101457.88;;;17.28;63.16
53246;BME280;39569;51.090;-1.786;2023-02-17T00:58:41;101465.41;;;17.46;62.86
53246;BME280;39569;51.090;-1.786;2023-02-17T01:01:10;101462.06;;;17.37;62.78
53246;BME280;39569;51.090;-1.786;2023-02-17T01:03:37;101464.13;;;17.35;63.26
53246;BME280;39569;51.090;-1.786;2023-02-17T01:06:07;101464.09;;;17.29;63.64
53246;BME280;39569;51.090;-1.786;2023-02-17T01:08:34;101456.28;;;17.47;63.06
53246;BME280;39569;51.090;-1.786;2023-02-17T01:11:01;101457.94;;;17.41;63.49
53246;BME280;39569;51.090;-1.786;2023-02-17T01:13:30;101462.06;;;17.44;63.37
53246;BME280;39569;51.090;-1.786;2023-02-17T01:15:56;101461.16;;;16.90;65.25
53246;BME280;39569;51.090;-1.786;2023-02-17T01:18:23;101458.03;;;17.20;64.20
53246;BME280;39569;51.090;-1.786;2023-02-17T01:20:50;101459.28;;;17.24;64.13
53246;BME280;39569;51.090;-1.786;2023-02-17T01:23:17;101458.94;;;17.40;63.72
53246;BME280;39569;51.090;-1.786;2023-02-17T01:25:45;101453.16;;;17.43;63.40
53246;BME280;39569;51.090;-1.786;2023-02-17T01:28:15;101456.09;;;17.08;64.34
53246;BME280;39569;51.090;-1.786;2023-02-17T01:30:43;101457.31;;;17.46;63.84
53246;BME280;39569;51.090;-1.786;2023-02-17T01:33:10;101460.63;;;17.41;63.45
53246;BME280;39569;51.090;-1.786;2023-02-17T01:35:37;101448.31;;;17.80;62.71
53246;BME280;39569;51.090;-1.786;2023-02-17T01:38:04;101461.09;;;17.51;63.13
53246;BME280;39569;51.090;-1.786;2023-02-17T01:40:30;101455.53;;;17.53;63.43
53246;BME280;39569;51.090;-1.786;2023-02-17T01:42:57;101464.66;;;17.52;63.17
53246;BME280;39569;51.090;-1.786;2023-02-17T01:45:32;101457.94;;;17.41;63.45
53246;BME280;39569;51.090;-1.786;2023-02-17T01:48:03;101451.78;;;17.47;63.02
53246;BME280;39569;51.090;-1.786;2023-02-17T01:50:35;101451.41;;;17.70;62.72
53246;BME280;39569;51.090;-1.786;2023-02-17T01:53:04;101441.31;;;17.98;61.76
53246;BME280;39569;51.090;-1.786;2023-02-17T01:55:34;101451.38;;;17.57;62.47
53246;BME280;39569;51.090;-1.786;2023-02-17T01:58:05;101453.16;;;17.43;62.78
53246;BME280;39569;51.090;-1.786;2023-02-17T02:00:34;101454.78;;;17.79;62.24
53246;BME280;39569;51.090;-1.786;2023-02-17T02:03:05;101450.47;;;18.04;61.62
53246;BME280;39569;51.090;-1.786;2023-02-17T02:05:35;101436.91;;;17.91;61.75
53246;BME280;39569;51.090;-1.786;2023-02-17T02:08:03;101444.94;;;17.64;62.11
53246;BME280;39569;51.090;-1.786;2023-02-17T02:10:30;101441.09;;;17.93;61.50
53246;BME280;39569;51.090;-1.786;2023-02-17T02:12:57;101449.13;;;17.67;62.14
53246;BME280;39569;51.090;-1.786;2023-02-17T02:15:28;101452.16;;;17.10;63.61
53246;BME280;39569;51.090;-1.786;2023-02-17T02:21:26;101454.75;;;17.31;63.12
53246;BME280;39569;51.090;-1.786;2023-02-17T02:24:14;101465.94;;;16.88;64.04
53246;BME280;39569;51.090;-1.786;2023-02-17T02:26:58;101459.00;;;17.06;64.08
53246;BME280;39569;51.090;-1.786;2023-02-17T02:29:57;101473.72;;;17.04;63.74
53246;BME280;39569;51.090;-1.786;2023-02-17T02:32:47;101467.00;;;16.44;64.69
53246;BME280;39569;51.090;-1.786;2023-02-17T02:35:18;101476.19;;;17.05;63.81
53246;BME280;39569;51.090;-1.786;2023-02-17T02:37:50;101473.94;;;16.75;64.05
53246;BME280;39569;51.090;-1.786;2023-02-17T02:40:21;101490.66;;;16.91;63.28
53246;BME280;39569;51.090;-1.786;2023-02-17T02:42:49;101497.88;;;16.84;64.15
53246;BME280;39569;51.090;-1.786;2023-02-17T02:45:17;101502.56;;;17.03;62.96
53246;BME280;39569;51.090;-1.786;2023-02-17T02:47:50;101499.81;;;16.69;64.00
53246;BME280;39569;51.090;-1.786;2023-02-17T02:50:20;101485.56;;;17.03;63.00
53246;BME280;39569;51.090;-1.786;2023-02-17T02:53:05;101484.41;;;16.91;63.44
53246;BME280;39569;51.090;-1.786;2023-02-17T02:55:47;101485.94;;;16.72;63.73
53246;BME280;39569;51.090;-1.786;2023-02-17T02:58:20;101490.59;;;16.85;63.47
53246;BME280;39569;51.090;-1.786;2023-02-17T03:00:54;101486.00;;;17.13;62.68
53246;BME280;39569;51.090;-1.786;2023-02-17T03:03:28;101483.22;;;17.00;63.22
53246;BME280;39569;51.090;-1.786;2023-02-17T03:06:04;101501.94;;;17.35;62.20
53246;BME280;39569;51.090;-1.786;2023-02-17T03:08:34;101499.28;;;17.42;61.69
53246;BME280;39569;51.090;-1.786;2023-02-17T03:11:03;101496.00;;;17.12;62.97
53246;BME280;39569;51.090;-1.786;2023-02-17T03:13:31;101503.38;;;16.48;64.58
53246;BME280;39569;51.090;-1.786;2023-02-17T03:16:02;101502.53;;;16.48;64.63
53246;BME280;39569;51.090;-1.786;2023-02-17T03:18:32;101503.91;;;16.44;64.58
53246;BME280;39569;51.090;-1.786;2023-02-17T03:21:02;101508.59;;;16.35;65.00
53246;BME280;39569;51.090;-1.786;2023-02-17T03:23:30;101495.97;;;16.57;64.21
53246;BME280;39569;51.090;-1.786;2023-02-17T03:25:57;101502.00;;;16.59;64.05
53246;BME280;39569;51.090;-1.786;2023-02-17T03:28:23;101497.38;;;16.74;63.42
53246;BME280;39569;51.090;-1.786;2023-02-17T03:30:50;101494.75;;;16.59;63.31
53246;BME280;39569;51.090;-1.786;2023-02-17T03:33:17;101505.16;;;16.90;62.56
53246;BME280;39569;51.090;-1.786;2023-02-17T03:35:45;101498.09;;;16.61;62.96
53246;BME280;39569;51.090;-1.786;2023-02-17T03:38:12;101493.72;;;17.16;61.79
53246;BME280;39569;51.090;-1.786;2023-02-17T03:40:39;101509.47;;;16.85;62.28
53246;BME280;39569;51.090;-1.786;2023-02-17T03:43:05;101501.72;;;16.47;62.87
53246;BME280;39569;51.090;-1.786;2023-02-17T03:45:35;101500.47;;;16.71;62.40
53246;BME280;39569;51.090;-1.786;2023-02-17T03:48:02;101504.56;;;16.46;62.81
53246;BME280;39569;51.090;-1.786;2023-02-17T03:50:28;101505.09;;;16.56;62.36
53246;BME280;39569;51.090;-1.786;2023-02-17T03:52:56;101505.13;;;16.84;61.73
53246;BME280;39569;51.090;-1.786;2023-02-17T03:55:23;101512.00;;;16.58;62.51
53246;BME280;39569;51.090;-1.786;2023-02-17T03:57:50;101508.03;;;16.19;63.61
53246;BME280;39569;51.090;-1.786;2023-02-17T04:00:17;101510.38;;;16.64;62.18
53246;BME280;39569;51.090;-1.786;2023-02-17T04:02:44;101515.66;;;16.51;62.48
53246;BME280;39569;51.090;-1.786;2023-02-17T04:05:11;101507.50;;;16.72;61.78
53246;BME280;39569;51.090;-1.786;2023-02-17T04:07:38;101517.09;;;16.75;62.26
53246;BME280;39569;51.090;-1.786;2023-02-17T04:10:07;101510.84;;;16.32;62.75
53246;BME280;39569;51.090;-1.786;2023-02-17T04:12:33;101526.56;;;16.64;62.03
53246;BME280;39569;51.090;-1.786;2023-02-17T04:15:00;101527.94;;;16.81;61.12
53246;BME280;39569;51.090;-1.786;2023-02-17T04:17:27;101518.22;;;16.87;60.70
53246;BME280;39569;51.090;-1.786;2023-02-17T04:19:54;101523.59;;;16.59;61.93
53246;BME280;39569;51.090;-1.786;2023-02-17T04:22:20;101523.34;;;16.54;61.97
53246;BME280;39569;51.090;-1.786;2023-02-17T04:24:47;101524.78;;;16.78;60.82
53246;BME280;39569;51.090;-1.786;2023-02-17T04:27:15;101524.00;;;16.84;60.45
53246;BME280;39569;51.090;-1.786;2023-02-17T04:29:42;101518.84;;;16.61;61.25
53246;BME280;39569;51.090;-1.786;2023-02-17T04:32:09;101524.59;;;16.37;61.75
53246;BME280;39569;51.090;-1.786;2023-02-17T04:34:36;101522.41;;;16.47;61.56
53246;BME280;39569;51.090;-1.786;2023-02-17T04:37:02;101510.09;;;16.59;61.55
53246;BME280;39569;51.090;-1.786;2023-02-17T04:39:29;101510.00;;;16.73;61.23
53246;BME280;39569;51.090;-1.786;2023-02-17T04:41:56;101512.44;;;16.62;61.39
53246;BME280;39569;51.090;-1.786;2023-02-17T04:44:24;101509.69;;;16.41;61.97
53246;BME280;39569;51.090;-1.786;2023-02-17T04:46:51;101506.81;;;16.42;61.95
53246;BME280;39569;51.090;-1.786;2023-02-17T04:49:18;101515.81;;;16.28;62.34
53246;BME280;39569;51.090;-1.786;2023-02-17T04:51:44;101505.94;;;16.00;63.16
53246;BME280;39569;51.090;-1.786;2023-02-17T04:54:11;101512.91;;;16.30;62.14
53246;BME280;39569;51.090;-1.786;2023-02-17T04:56:38;101510.47;;;16.35;61.76
53246;BME280;39569;51.090;-1.786;2023-02-17T04:59:04;101503.03;;;16.16;61.90
53246;BME280;39569;51.090;-1.786;2023-02-17T05:01:33;101503.84;;;16.16;62.35
53246;BME280;39569;51.090;-1.786;2023-02-17T05:03:59;101508.69;;;15.85;62.93
53246;BME280;39569;51.090;-1.786;2023-02-17T05:06:26;101508.00;;;15.62;62.93
53246;BME280;39569;51.090;-1.786;2023-02-17T05:08:53;101505.28;;;16.12;62.10
53246;BME280;39569;51.090;-1.786;2023-02-17T05:11:19;101511.53;;;15.98;62.10
53246;BME280;39569;51.090;-1.786;2023-02-17T05:13:46;101492.31;;;16.01;62.27
53246;BME280;39569;51.090;-1.786;2023-02-17T05:16:13;101496.03;;;16.42;61.22
53246;BME280;39569;51.090;-1.786;2023-02-17T05:18:41;101491.47;;;16.22;61.37
53246;BME280;39569;51.090;-1.786;2023-02-17T05:21:08;101500.78;;;16.19;61.23
53246;BME280;39569;51.090;-1.786;2023-02-17T05:23:35;101492.38;;;16.29;61.08
53246;BME280;39569;51.090;-1.786;2023-02-17T05:26:06;101495.00;;;16.01;61.90
53246;BME280;39569;51.090;-1.786;2023-02-17T05:28:33;101487.31;;;16.19;61.11
53246;BME280;39569;51.090;-1.786;2023-02-17T05:31:00;101484.09;;;16.51;59.78
53246;BME280;39569;51.090;-1.786;2023-02-17T05:33:27;101472.53;;;16.57;59.94
53246;BME280;39569;51.090;-1.786;2023-02-17T05:36:00;101478.44;;;16.95;58.99
53246;BME280;39569;51.090;-1.786;2023-02-17T05:38:27;101471.72;;;16.36;59.87
53246;BME280;39569;51.090;-1.786;2023-02-17T05:40:54;101468.44;;;16.19;60.64
53246;BME280;39569;51.090;-1.786;2023-02-17T05:43:21;101466.59;;;16.20;60.85
53246;BME280;39569;51.090;-1.786;2023-02-17T05:45:47;101464.09;;;16.46;60.07
53246;BME280;39569;51.090;-1.786;2023-02-17T05:48:14;101470.91;;;16.63;59.72
53246;BME280;39569;51.090;-1.786;2023-02-17T05:50:41;101477.09;;;16.15;61.06
53246;BME280;39569;51.090;-1.786;2023-02-17T05:53:09;101474.97;;;16.31;60.84
53246;BME280;39569;51.090;-1.786;2023-02-17T05:55:36;101475.75;;;16.04;61.40
53246;BME280;39569;51.090;-1.786;2023-02-17T05:58:03;101488.09;;;16.34;60.87
53246;BME280;39569;51.090;-1.786;2023-02-17T06:00:30;101483.22;;;16.23;61.04
53246;BME280;39569;51.090;-1.786;2023-02-17T06:02:57;101482.63;;;16.28;60.61
53246;BME280;39569;51.090;-1.786;2023-02-17T06:05:23;101483.13;;;16.38;60.53
53246;BME280;39569;51.090;-1.786;2023-02-17T06:07:50;101478.91;;;16.29;60.47
53246;BME280;39569;51.090;-1.786;2023-02-17T06:10:19;101480.31;;;16.25;60.53
53246;BME280;39569;51.090;-1.786;2023-02-17T06:12:45;101475.38;;;16.49;59.98
53246;BME280;39569;51.090;-1.786;2023-02-17T06:15:12;101471.97;;;16.62;59.58
53246;BME280;39569;51.090;-1.786;2023-02-17T06:17:39;101470.25;;;16.54;60.02
53246;BME280;39569;51.090;-1.786;2023-02-17T06:20:07;101478.97;;;16.84;59.42
53246;BME280;39569;51.090;-1.786;2023-02-17T06:22:34;101469.66;;;16.38;60.87
53246;BME280;39569;51.090;-1.786;2023-02-17T06:25:01;101474.78;;;16.12;61.09
53246;BME280;39569;51.090;-1.786;2023-02-17T06:27:29;101467.25;;;16.07;61.61
53246;BME280;39569;51.090;-1.786;2023-02-17T06:29:56;101473.88;;;16.26;60.75
53246;BME280;39569;51.090;-1.786;2023-02-17T06:32:22;101479.72;;;16.29;60.57
53246;BME280;39569;51.090;-1.786;2023-02-17T06:34:49;101486.34;;;16.48;60.49
53246;BME280;39569;51.090;-1.786;2023-02-17T06:37:16;101488.38;;;16.04;61.54
53246;BME280;39569;51.090;-1.786;2023-02-17T06:39:43;101490.50;;;16.08;62.06
53246;BME280;39569;51.090;-1.786;2023-02-17T06:42:10;101488.00;;;16.28;61.21
53246;BME280;39569;51.090;-1.786;2023-02-17T06:44:38;101488.06;;;16.13;61.98
53246;BME280;39569;51.090;-1.786;2023-02-17T06:47:04;101490.94;;;16.33;61.09
53246;BME280;39569;51.090;-1.786;2023-02-17T06:49:31;101489.69;;;16.50;60.76
53246;BME280;39569;51.090;-1.786;2023-02-17T06:51:58;101489.06;;;16.48;60.51
53246;BME280;39569;51.090;-1.786;2023-02-17T06:54:25;101486.63;;;16.38;60.48
53246;BME280;39569;51.090;-1.786;2023-02-17T06:56:52;101486.91;;;16.43;60.93
53246;BME280;39569;51.090;-1.786;2023-02-17T06:59:18;101494.59;;;16.46;60.95
53246;BME280;39569;51.090;-1.786;2023-02-17T07:01:46;101501.50;;;16.07;62.00
53246;BME280;39569;51.090;-1.786;2023-02-17T07:04:14;101500.63;;;16.27;61.58
53246;BME280;39569;51.090;-1.786;2023-02-17T07:06:41;101505.16;;;16.41;61.23
53246;BME280;39569;51.090;-1.786;2023-02-17T07:09:08;101501.81;;;16.39;61.10
53246;BME280;39569;51.090;-1.786;2023-02-17T07:11:37;101494.50;;;16.12;61.92
53246;BME280;39569;51.090;-1.786;2023-02-17T07:14:04;101505.38;;;15.68;62.84
53246;BME280;39569;51.090;-1.786;2023-02-17T07:16:31;101506.72;;;15.94;62.97
53246;BME280;39569;51.090;-1.786;2023-02-17T07:18:59;101504.31;;;16.41;61.53
53246;BME280;39569;51.090;-1.786;2023-02-17T07:21:26;101515.41;;;16.10;62.15
53246;BME280;39569;51.090;-1.786;2023-02-17T07:23:52;101514.41;;;15.97;62.52
53246;BME280;39569;51.090;-1.786;2023-02-17T07:26:19;101521.84;;;16.30;61.38
53246;BME280;39569;51.090;-1.786;2023-02-17T07:28:46;101521.00;;;16.30;61.07
53246;BME280;39569;51.090;-1.786;2023-02-17T07:31:15;101534.38;;;16.38;61.27
53246;BME280;39569;51.090;-1.786;2023-02-17T07:33:42;101530.34;;;16.69;60.16
53246;BME280;39569;51.090;-1.786;2023-02-17T07:36:13;101545.41;;;16.43;60.45
53246;BME280;39569;51.090;-1.786;2023-02-17T07:38:40;101558.97;;;16.49;60.36
53246;BME280;39569;51.090;-1.786;2023-02-17T07:41:09;101563.00;;;16.81;60.15
53246;BME280;39569;51.090;-1.786;2023-02-17T07:43:37;101575.59;;;16.95;58.87
53246;BME280;39569;51.090;-1.786;2023-02-17T07:46:04;101576.47;;;17.30;57.89
53246;BME280;39569;51.090;-1.786;2023-02-17T07:49:30;62679.75;;;-139.47;100.00
53246;BME280;39569;51.090;-1.786;2023-02-17T07:52:56;62679.75;;;-139.47;100.00
53246;BME280;39569;51.090;-1.786;2023-02-17T07:56:22;62679.75;;;-139.47;100.00
53246;BME280;39569;51.090;-1.786;2023-02-17T07:59:47;62679.75;;;-139.47;100.00
53246;BME280;39569;51.090;-1.786;2023-02-17T08:03:13;62679.75;;;-139.47;100.00
53246;BME280;39569;51.090;-1.786;2023-02-17T08:06:38;62679.75;;;-139.47;100.00
53246;BME280;39569;51.090;-1.786;2023-02-17T08:10:05;62679.75;;;-139.47;100.00
53246;BME280;39569;51.090;-1.786;2023-02-17T08:13:48;62679.75;;;-139.47;100.00
53246;BME280;39569;51.090;-1.786;2023-02-17T08:17:14;62679.75;;;-139.47;100.00
53246;BME280;39569;51.090;-1.786;2023-02-17T08:19:40;101603.75;;;16.86;59.79
53246;BME280;39569;51.090;-1.786;2023-02-17T08:22:07;101602.69;;;16.45;61.01
53246;BME280;39569;51.090;-1.786;2023-02-17T08:24:35;101603.28;;;17.04;59.35
53246;BME280;39569;51.090;-1.786;2023-02-17T08:27:02;101608.03;;;16.59;60.08
53246;BME280;39569;51.090;-1.786;2023-02-17T08:29:29;101606.56;;;16.99;59.87
53246;BME280;39569;51.090;-1.786;2023-02-17T08:31:55;101611.44;;;17.10;59.40
53246;BME280;39569;51.090;-1.786;2023-02-17T08:34:22;101607.28;;;16.65;60.43
53246;BME280;39569;51.090;-1.786;2023-02-17T08:36:49;101614.84;;;16.55;61.13
53246;BME280;39569;51.090;-1.786;2023-02-17T08:39:16;101613.78;;;16.71;60.41
53246;BME280;39569;51.090;-1.786;2023-02-17T08:41:45;101612.72;;;16.72;60.94
53246;BME280;39569;51.090;-1.786;2023-02-17T08:44:13;101619.16;;;16.71;60.23
53246;BME280;39569;51.090;-1.786;2023-02-17T08:46:43;101611.00;;;17.34;59.20
53246;BME280;39569;51.090;-1.786;2023-02-17T08:49:11;101616.03;;;17.16;59.16
53246;BME280;39569;51.090;-1.786;2023-02-17T08:51:39;101620.75;;;17.08;59.54
53246;BME280;39569;51.090;-1.786;2023-02-17T08:54:06;101632.34;;;16.81;60.29
53246;BME280;39569;51.090;-1.786;2023-02-17T08:56:35;101624.41;;;17.21;59.33
53246;BME280;39569;51.090;-1.786;2023-02-17T08:59:04;101627.91;;;16.73;60.64
53246;BME280;39569;51.090;-1.786;2023-02-17T09:01:31;101628.28;;;16.91;60.33
53246;BME280;39569;51.090;-1.786;2023-02-17T09:03:59;101638.69;;;16.73;60.71
53246;BME280;39569;51.090;-1.786;2023-02-17T09:06:31;101643.13;;;16.45;61.84
53246;BME280;39569;51.090;-1.786;2023-02-17T09:08:59;101651.59;;;16.56;61.32
53246;BME280;39569;51.090;-1.786;2023-02-17T09:11:26;101652.06;;;17.02;60.21
53246;BME280;39569;51.090;-1.786;2023-02-17T09:13:53;101655.56;;;17.24;59.61
53246;BME280;39569;51.090;-1.786;2023-02-17T09:16:21;101651.28;;;17.08;59.54
53246;BME280;39569;51.090;-1.786;2023-02-17T09:18:49;101648.78;;;17.07;59.92
53246;BME280;39569;51.090;-1.786;2023-02-17T09:21:16;101657.06;;;17.47;59.08
53246;BME280;39569;51.090;-1.786;2023-02-17T09:23:43;101655.03;;;17.35;59.04
53246;BME280;39569;51.090;-1.786;2023-02-17T09:26:11;101651.72;;;17.12;59.81
53246;BME280;39569;51.090;-1.786;2023-02-17T09:28:38;101648.84;;;17.62;58.99
53246;BME280;39569;51.090;-1.786;2023-02-17T09:31:09;101661.03;;;17.86;58.08
53246;BME280;39569;51.090;-1.786;2023-02-17T09:33:38;101655.53;;;17.66;58.19
53246;BME280;39569;51.090;-1.786;2023-02-17T09:36:07;101669.53;;;18.17;56.92
53246;BME280;39569;51.090;-1.786;2023-02-17T09:38:37;101668.53;;;17.90;57.68
53246;BME280;39569;51.090;-1.786;2023-02-17T09:41:14;101670.13;;;17.72;58.43
53246;BME280;39569;51.090;-1.786;2023-02-17T09:43:41;101661.47;;;17.34;59.05
53246;BME280;39569;51.090;-1.786;2023-02-17T09:46:12;101664.84;;;17.63;58.77
53246;BME280;39569;51.090;-1.786;2023-02-17T09:48:43;101668.75;;;17.89;58.59
53246;BME280;39569;51.090;-1.786;2023-02-17T09:51:16;101676.53;;;17.71;58.02
53246;BME280;39569;51.090;-1.786;2023-02-17T09:53:50;101658.41;;;17.64;58.66
53246;BME280;39569;51.090;-1.786;2023-02-17T09:56:21;101653.34;;;17.06;60.71
53246;BME280;39569;51.090;-1.786;2023-02-17T09:58:52;101649.44;;;17.92;58.46
53246;BME280;39569;51.090;-1.786;2023-02-17T10:01:20;101644.53;;;18.15;57.32
53246;BME280;39569;51.090;-1.786;2023-02-17T10:03:53;101645.75;;;18.46;56.61
53246;BME280;39569;51.090;-1.786;2023-02-17T10:06:24;101643.81;;;18.40;57.05
53246;BME280;39569;51.090;-1.786;2023-02-17T10:08:54;101639.78;;;18.17;57.89
53246;BME280;39569;51.090;-1.786;2023-02-17T10:11:26;101645.78;;;18.59;56.37
53246;BME280;39569;51.090;-1.786;2023-02-17T10:13:58;101652.63;;;18.55;56.26
53246;BME280;39569;51.090;-1.786;2023-02-17T10:16:27;101628.97;;;18.17;57.56
53246;BME280;39569;51.090;-1.786;2023-02-17T10:19:00;101641.81;;;17.67;58.80
53246;BME280;39569;51.090;-1.786;2023-02-17T10:21:30;101626.88;;;18.12;57.85
53246;BME280;39569;51.090;-1.786;2023-02-17T10:23:59;101630.19;;;18.61;55.90
53246;BME280;39569;51.090;-1.786;2023-02-17T10:26:43;101636.91;;;19.11;54.36
53246;BME280;39569;51.090;-1.786;2023-02-17T10:29:19;101633.94;;;18.74;55.33
53246;BME280;39569;51.090;-1.786;2023-02-17T10:32:03;101638.72;;;18.11;57.77
53246;BME280;39569;51.090;-1.786;2023-02-17T10:34:35;101635.59;;;17.74;58.50
53246;BME280;39569;51.090;-1.786;2023-02-17T10:37:04;101642.84;;;18.01;58.08
53246;BME280;39569;51.090;-1.786;2023-02-17T10:39:44;101634.13;;;18.59;56.52
53246;BME280;39569;51.090;-1.786;2023-02-17T10:42:17;101623.63;;;17.89;58.12
53246;BME280;39569;51.090;-1.786;2023-02-17T10:44:47;101629.84;;;18.37;57.13
53246;BME280;39569;51.090;-1.786;2023-02-17T10:47:15;101625.66;;;18.28;57.13
53246;BME280;39569;51.090;-1.786;2023-02-17T10:49:47;101614.81;;;19.01;55.45
53246;BME280;39569;51.090;-1.786;2023-02-17T10:52:17;101617.34;;;18.23;57.03
53246;BME280;39569;51.090;-1.786;2023-02-17T10:54:48;101613.25;;;18.40;56.63
53246;BME280;39569;51.090;-1.786;2023-02-17T10:57:18;101605.81;;;18.68;56.62
53246;BME280;39569;51.090;-1.786;2023-02-17T10:59:47;101604.75;;;18.49;56.62
53246;BME280;39569;51.090;-1.786;2023-02-17T11:02:19;101610.44;;;18.14;58.02
53246;BME280;39569;51.090;-1.786;2023-02-17T11:04:50;101614.47;;;18.37;57.69
53246;BME280;39569;51.090;-1.786;2023-02-17T11:07:30;101613.53;;;18.11;58.24
53246;BME280;39569;51.090;-1.786;2023-02-17T11:09:59;101616.47;;;18.70;56.84
53246;BME280;39569;51.090;-1.786;2023-02-17T11:12:28;101615.66;;;18.22;57.69
53246;BME280;39569;51.090;-1.786;2023-02-17T11:14:58;101618.34;;;18.76;56.43
53246;BME280;39569;51.090;-1.786;2023-02-17T11:17:34;101623.56;;;18.84;56.56
53246;BME280;39569;51.090;-1.786;2023-02-17T11:20:24;101611.47;;;18.73;56.74
53246;BME280;39569;51.090;-1.786;2023-02-17T11:23:00;101613.16;;;18.94;56.24
53246;BME280;39569;51.090;-1.786;2023-02-17T11:25:29;101617.34;;;19.48;55.05
53246;BME280;39569;51.090;-1.786;2023-02-17T11:27:58;101598.78;;;19.39;54.63
53246;BME280;39569;51.090;-1.786;2023-02-17T11:30:27;101614.19;;;19.06;55.85
53246;BME280;39569;51.090;-1.786;2023-02-17T11:32:54;101607.31;;;18.90;56.11
53246;BME280;39569;51.090;-1.786;2023-02-17T11:35:24;101610.00;;;19.75;54.20
53246;BME280;39569;51.090;-1.786;2023-02-17T11:37:59;101611.50;;;19.45;54.69
53246;BME280;39569;51.090;-1.786;2023-02-17T11:40:27;101617.28;;;19.68;53.70
53246;BME280;39569;51.090;-1.786;2023-02-17T11:42:55;101614.19;;;18.86;56.62
53246;BME280;39569;51.090;-1.786;2023-02-17T11:45:24;101608.97;;;19.11;55.60
53246;BME280;39569;51.090;-1.786;2023-02-17T11:48:02;101617.56;;;19.34;55.36
53246;BME280;39569;51.090;-1.786;2023-02-17T11:50:40;101605.22;;;19.57;54.44
53246;BME280;39569;51.090;-1.786;2023-02-17T11:53:21;101600.66;;;20.15;53.44
53246;BME280;39569;51.090;-1.786;2023-02-17T11:55:56;101603.91;;;19.80;53.39
53246;BME280;39569;51.090;-1.786;2023-02-17T11:58:36;101604.41;;;19.50;55.02
53246;BME280;39569;51.090;-1.786;2023-02-17T12:01:20;101607.31;;;19.62;54.89
53246;BME280;39569;51.090;-1.786;2023-02-17T12:04:12;101600.03;;;19.56;54.57
53246;BME280;39569;51.090;-1.786;2023-02-17T12:06:59;101595.88;;;19.47;55.52
53246;BME280;39569;51.090;-1.786;2023-02-17T12:09:36;101604.66;;;20.06;54.18
53246;BME280;39569;51.090;-1.786;2023-02-17T12:12:14;101595.59;;;19.75;54.65
53246;BME280;39569;51.090;-1.786;2023-02-17T12:14:55;101602.25;;;19.79;54.60
53246;BME280;39569;51.090;-1.786;2023-02-17T12:17:33;101607.31;;;19.03;56.55
53246;BME280;39569;51.090;-1.786;2023-02-17T12:20:13;101607.75;;;19.52;55.56
53246;BME280;39569;51.090;-1.786;2023-02-17T12:22:59;101612.28;;;19.72;55.08
53246;BME280;39569;51.090;-1.786;2023-02-17T12:25:32;101614.00;;;19.33;55.88
53246;BME280;39569;51.090;-1.786;2023-02-17T12:28:09;101606.03;;;19.65;55.26
53246;BME280;39569;51.090;-1.786;2023-02-17T12:30:52;101600.34;;;19.86;55.00
53246;BME280;39569;51.090;-1.786;2023-02-17T12:33:35;101601.81;;;19.82;54.77
53246;BME280;39569;51.090;-1.786;2023-02-17T12:36:07;101594.75;;;20.31;53.66
53246;BME280;39569;51.090;-1.786;2023-02-17T12:38:40;101603.03;;;19.99;54.47
53246;BME280;39569;51.090;-1.786;2023-02-17T12:41:11;101596.81;;;19.85;55.05
53246;BME280;39569;51.090;-1.786;2023-02-17T12:43:41;101602.22;;;19.85;54.81
53246;BME280;39569;51.090;-1.786;2023-02-17T12:46:12;101600.81;;;20.33;53.66
53246;BME280;39569;51.090;-1.786;2023-02-17T12:48:44;101599.69;;;20.79;52.64
53246;BME280;39569;51.090;-1.786;2023-02-17T12:51:18;101610.31;;;19.98;54.45
53246;BME280;39569;51.090;-1.786;2023-02-17T12:53:51;101614.28;;;19.96;54.72
53246;BME280;39569;51.090;-1.786;2023-02-17T12:56:46;101618.56;;;20.29;53.82
53246;BME280;39569;51.090;-1.786;2023-02-17T12:59:17;101613.63;;;20.58;53.18
53246;BME280;39569;51.090;-1.786;2023-02-17T13:01:54;101619.56;;;20.73;52.61
53246;BME280;39569;51.090;-1.786;2023-02-17T13:04:23;101620.63;;;20.72;52.93
53246;BME280;39569;51.090;-1.786;2023-02-17T13:06:57;101615.75;;;21.11;52.25